createdAt,value
2023-03-01T00:02:11.547Z,22.07
2023-03-01T00:07:13.447Z,22.50
2023-03-01T00:12:15.157Z,24.23
2023-03-01T00:17:16.823Z,23.70
2023-03-01T00:22:18.419Z,24.10
2023-03-01T00:27:20.024Z,24.20
2023-03-01T00:32:21.652Z,26.10
2023-03-01T00:37:24.066Z,24.80
2023-03-01T00:42:25.697Z,25.37
2023-03-01T00:47:30.034Z,26.63
2023-03-01T00:52:31.649Z,24.47
2023-03-01T00:57:34.440Z,24.63
2023-03-01T01:02:36.671Z,26.83
2023-03-01T01:07:38.603Z,25.37
2023-03-01T01:12:40.253Z,26.90
2023-03-01T01:17:42.043Z,25.97
2023-03-01T01:22:43.660Z,28.03
2023-03-01T01:27:46.318Z,28.20
2023-03-01T01:32:47.919Z,28.60
2023-03-01T01:37:49.530Z,26.80
2023-03-01T01:42:51.723Z,26.13
2023-03-01T01:47:56.501Z,21.93
2023-03-01T01:52:58.827Z,22.73
2023-03-01T01:58:05.849Z,22.50
2023-03-01T02:03:12.826Z,25.47
2023-03-01T02:08:17.465Z,27.47
2023-03-01T02:13:19.209Z,27.57
2023-03-01T02:18:24.580Z,27.00
2023-03-01T02:23:26.870Z,25.77
2023-03-01T02:28:36.444Z,24.27
2023-03-01T02:33:40.004Z,24.70
2023-03-01T02:38:43.095Z,23.13
2023-03-01T02:43:44.957Z,20.63
2023-03-01T02:48:55.792Z,23.27
2023-03-01T02:54:11.044Z,22.87
2023-03-01T02:59:12.787Z,22.80
2023-03-01T03:04:18.079Z,23.77
2023-03-01T03:09:23.210Z,25.13
2023-03-01T03:14:24.833Z,27.77
2023-03-01T03:19:26.666Z,28.33
2023-03-01T03:24:39.295Z,24.17
2023-03-01T03:29:41.003Z,23.97
2023-03-01T03:34:42.641Z,26.00
2023-03-01T03:39:44.238Z,24.63
2023-03-01T03:44:45.844Z,25.47
2023-03-01T03:49:47.479Z,25.67
2023-03-01T03:54:49.090Z,23.70
2023-03-01T03:59:50.693Z,24.53
2023-03-01T04:04:53.428Z,23.10
2023-03-01T04:09:55.026Z,26.43
2023-03-01T04:14:56.687Z,23.60
2023-03-01T04:19:59.928Z,24.03
2023-03-01T04:25:03.035Z,26.20
2023-03-01T04:30:05.099Z,24.70
2023-03-01T04:35:06.994Z,22.57
2023-03-01T04:40:17.301Z,26.73
2023-03-01T04:45:19.217Z,26.93
2023-03-01T04:50:22.659Z,26.13
2023-03-01T04:55:26.842Z,29.23
2023-03-01T05:00:28.518Z,25.37
2023-03-01T05:05:37.215Z,26.13
2023-03-01T05:10:39.827Z,25.50
2023-03-01T05:15:41.851Z,25.17
2023-03-01T05:20:43.905Z,26.70
2023-03-01T05:25:45.907Z,24.37
2023-03-01T05:30:48.389Z,24.80
2023-03-01T05:35:51.442Z,24.83
2023-03-01T05:40:53.149Z,26.73
2023-03-01T05:45:54.817Z,25.87
2023-03-01T05:51:01.280Z,24.53
2023-03-01T05:56:05.626Z,25.67
2023-03-01T06:01:13.365Z,25.47
2023-03-01T06:06:14.978Z,24.83
2023-03-01T06:11:16.943Z,22.60
2023-03-01T06:16:18.577Z,32.97
2023-03-01T06:21:20.197Z,25.47
2023-03-01T06:26:21.805Z,28.37
2023-03-01T06:31:23.460Z,24.47
2023-03-01T06:36:25.203Z,23.93
2023-03-01T06:41:26.977Z,25.53
2023-03-01T06:46:28.856Z,27.33
2023-03-01T06:51:30.693Z,24.83
2023-03-01T06:56:33.512Z,21.37
2023-03-01T07:01:35.320Z,24.60
2023-03-01T07:06:37.005Z,24.03
2023-03-01T07:11:38.615Z,21.90
2023-03-01T07:16:40.239Z,23.17
2023-03-01T07:21:41.881Z,24.20
2023-03-01T07:26:43.525Z,23.83
2023-03-01T07:31:45.304Z,23.27
2023-03-01T07:36:47.049Z,24.45
2023-03-01T07:41:48.779Z,20.27
2023-03-01T07:46:57.390Z,23.20
2023-03-01T07:51:59.327Z,21.40
2023-03-01T07:57:00.960Z,21.38
2023-03-01T08:02:02.668Z,21.38
2023-03-01T08:07:06.628Z,23.00
2023-03-01T08:12:08.454Z,21.20
2023-03-01T08:17:10.093Z,23.92
2023-03-01T08:22:11.958Z,20.30
2023-03-01T08:27:14.344Z,21.73
2023-03-01T08:32:16.112Z,20.20
2023-03-01T08:37:17.862Z,23.02
2023-03-01T08:42:19.460Z,22.40
2023-03-01T08:47:21.089Z,23.23
2023-03-01T08:52:23.463Z,23.27
2023-03-01T08:57:25.083Z,26.02
2023-03-01T09:02:26.765Z,25.35
2023-03-01T09:07:31.386Z,25.00
2023-03-01T09:12:33.047Z,24.17
2023-03-01T09:17:34.668Z,22.42
2023-03-01T09:22:36.284Z,20.83
2023-03-01T09:27:37.892Z,21.95
2023-03-01T09:32:43.680Z,20.55
2023-03-01T09:37:45.635Z,19.50
2023-03-01T09:43:09.750Z,19.75
2023-03-01T09:48:19.777Z,20.33
2023-03-01T09:53:26.617Z,20.25
2023-03-01T09:58:47.060Z,19.25
2023-03-01T10:04:06.300Z,21.27
2023-03-01T10:09:18.866Z,20.10
2023-03-01T10:14:52.509Z,20.10
2023-03-01T10:19:56.119Z,22.25
2023-03-01T10:25:00.809Z,19.00
2023-03-01T10:30:21.036Z,20.00
2023-03-01T10:35:25.737Z,19.88
2023-03-01T10:40:27.564Z,19.83
2023-03-01T10:45:40.086Z,19.27
2023-03-01T10:50:44.599Z,18.50
2023-03-01T10:55:46.323Z,20.35
2023-03-01T11:00:51.246Z,20.92
2023-03-01T11:05:56.648Z,20.45
2023-03-01T11:11:27.203Z,19.77
2023-03-01T11:16:49.668Z,20.08
2023-03-01T11:21:55.727Z,20.15
2023-03-01T11:27:01.048Z,21.25
2023-03-01T11:32:08.594Z,19.70
2023-03-01T11:37:26.015Z,20.20
2023-03-01T11:42:53.203Z,20.92
2023-03-01T11:48:11.927Z,20.83
2023-03-01T11:53:27.886Z,17.73
2023-03-01T11:58:54.159Z,18.75
2023-03-01T12:04:23.483Z,16.00
2023-03-01T12:09:37.292Z,17.15
2023-03-01T12:14:48.094Z,16.02
2023-03-01T12:20:16.755Z,15.68
2023-03-01T12:25:35.826Z,15.75
2023-03-01T12:30:56.161Z,16.15
2023-03-01T12:36:12.899Z,12.52
2023-03-01T12:41:29.735Z,13.73
2023-03-01T12:46:45.455Z,13.88
2023-03-01T12:52:11.708Z,14.15
2023-03-01T12:57:38.749Z,13.50
2023-03-01T13:02:49.202Z,15.30
2023-03-01T13:08:03.562Z,16.67
2023-03-01T13:13:34.559Z,15.20
2023-03-01T13:18:36.218Z,14.75
2023-03-01T13:23:40.840Z,15.77
2023-03-01T13:28:45.162Z,16.38
2023-03-01T13:33:50.921Z,15.90
2023-03-01T13:38:56.254Z,15.25
2023-03-01T13:43:58.802Z,17.50
2023-03-01T13:49:01.378Z,15.82
2023-03-01T13:54:03.174Z,16.65
2023-03-01T13:59:18.552Z,16.85
2023-03-01T14:04:36.837Z,14.65
2023-03-01T14:09:45.039Z,17.05
2023-03-01T14:14:57.904Z,16.95
2023-03-01T14:20:24.342Z,16.85
2023-03-01T14:25:33.415Z,17.27
2023-03-01T14:30:42.674Z,16.70
2023-03-01T14:35:57.675Z,17.83
2023-03-01T14:41:07.150Z,18.98
2023-03-01T14:46:20.098Z,18.80
2023-03-01T14:51:22.481Z,18.80
2023-03-01T14:56:24.101Z,18.50
2023-03-01T15:01:25.880Z,17.92
2023-03-01T15:06:27.752Z,18.17
2023-03-01T15:11:34.226Z,17.45
2023-03-01T15:16:42.389Z,16.67
2023-03-01T15:21:48.033Z,19.02
2023-03-01T15:26:58.547Z,19.58
2023-03-01T15:32:07.034Z,17.27
2023-03-01T15:37:38.231Z,19.58
2023-03-01T15:42:39.868Z,17.75
2023-03-01T15:47:42.712Z,18.42
2023-03-01T15:52:44.496Z,18.10
2023-03-01T15:57:46.333Z,18.08
2023-03-01T16:02:47.962Z,20.13
2023-03-01T16:07:50.270Z,18.33
2023-03-01T16:12:53.621Z,17.83
2023-03-01T16:17:55.386Z,18.80
2023-03-01T16:23:01.459Z,16.25
2023-03-01T16:28:09.621Z,16.85
2023-03-01T16:33:33.321Z,17.08
2023-03-01T16:38:33.569Z,18.08
2023-03-01T16:43:35.215Z,16.10
2023-03-01T16:48:36.837Z,16.77
2023-03-01T16:53:39.048Z,15.88
2023-03-01T16:58:41.531Z,16.10
2023-03-01T17:03:44.091Z,15.70
2023-03-01T17:08:45.709Z,18.80
2023-03-01T17:13:47.818Z,17.58
2023-03-01T17:18:50.069Z,16.55
2023-03-01T17:23:56.431Z,16.65
2023-03-01T17:28:59.215Z,17.15
2023-03-01T17:34:01.734Z,18.27
2023-03-01T17:39:03.456Z,19.25
2023-03-01T17:44:05.172Z,17.60
2023-03-01T17:49:06.831Z,19.77
2023-03-01T17:54:08.469Z,20.38
2023-03-01T17:59:10.082Z,21.63
2023-03-01T18:04:12.155Z,23.53
2023-03-01T18:09:14.780Z,20.60
2023-03-01T18:14:16.462Z,20.60
2023-03-01T18:19:18.149Z,19.92
2023-03-01T18:24:19.990Z,21.23
2023-03-01T18:29:21.610Z,22.60
2023-03-01T18:34:24.159Z,21.08
2023-03-01T18:39:25.852Z,21.90
2023-03-01T18:44:27.475Z,21.63
2023-03-01T18:49:29.165Z,20.75
2023-03-01T18:54:30.932Z,20.10
2023-03-01T18:59:32.692Z,21.63
2023-03-01T19:04:34.372Z,25.00
2023-03-01T19:09:36.383Z,24.50
2023-03-01T19:14:38.053Z,25.83
2023-03-01T19:19:40.005Z,23.75
2023-03-01T19:24:41.614Z,22.40
2023-03-01T19:29:43.290Z,26.48
2023-03-01T19:34:46.685Z,25.58
2023-03-01T19:39:48.307Z,24.63
2023-03-01T19:44:49.910Z,26.95
2023-03-01T19:49:51.504Z,27.38
2023-03-01T19:54:58.145Z,25.80
2023-03-01T20:00:06.273Z,26.40
2023-03-01T20:05:14.002Z,27.67
2023-03-01T20:10:15.743Z,29.27
2023-03-01T20:15:17.373Z,32.03
2023-03-01T20:20:19.075Z,29.10
2023-03-01T20:25:20.717Z,29.83
2023-03-01T20:30:22.324Z,27.92
2023-03-01T20:35:24.044Z,28.27
2023-03-01T20:40:28.266Z,29.48
2023-03-01T20:45:29.944Z,30.08
2023-03-01T20:50:31.746Z,31.75
2023-03-01T20:55:33.635Z,29.45
2023-03-01T21:00:35.716Z,30.15
2023-03-01T21:05:37.430Z,29.37
2023-03-01T21:10:39.067Z,29.75
2023-03-01T21:15:40.682Z,31.20
2023-03-01T21:20:42.773Z,32.10
2023-03-01T21:25:45.401Z,32.75
2023-03-01T21:30:47.030Z,30.30
2023-03-01T21:35:48.933Z,32.50
2023-03-01T21:40:50.647Z,28.38
2023-03-01T21:45:52.366Z,30.73
2023-03-01T21:50:58.436Z,28.95
2023-03-01T21:56:01.494Z,29.45
2023-03-01T22:01:12.299Z,30.75
2023-03-01T22:06:19.875Z,28.75
2023-03-01T22:11:22.639Z,33.22
2023-03-01T22:16:28.225Z,31.13
2023-03-01T22:21:29.929Z,32.17
2023-03-01T22:26:37.509Z,33.15
2023-03-01T22:31:39.760Z,29.52
2023-03-01T22:36:41.516Z,32.67
2023-03-01T22:41:46.028Z,30.42
2023-03-01T22:46:48.191Z,28.95
2023-03-01T22:51:50.743Z,27.58
2023-03-01T22:56:52.438Z,27.13
2023-03-01T23:01:54.636Z,26.67
2023-03-01T23:06:56.813Z,28.95
2023-03-01T23:12:00.378Z,27.23
2023-03-01T23:17:02.628Z,28.17
2023-03-01T23:22:04.917Z,26.92
2023-03-01T23:27:06.854Z,27.65
2023-03-01T23:32:09.256Z,30.13
2023-03-01T23:37:10.923Z,29.73
2023-03-01T23:42:12.529Z,26.60
2023-03-01T23:47:14.188Z,26.73
2023-03-01T23:52:17.312Z,27.88
2023-03-01T23:57:19.947Z,28.52
